Time;durP1;ratioP1;P1;durP2;ratioP2;P2;SDS_P1;SDS_P2;PMS_P1;PMS_P2;Temp;Humidity;BMP_temperature;BMP_pressure;BME280_temperature;BME280_humidity;BME280_pressure;Samples;Min_cycle;Max_cycle;Signal;HPM_P1;HPM_P2
2022/01/04 00:01:05;;;;;;;20.30;4.85;;;7.60;99.90;;;;;;5031893;28;20099;-83
2022/01/04 00:03:31;;;;;;;19.05;4.45;;;7.60;99.90;;;;;;5032267;28;20507;-82
2022/01/04 00:05:56;;;;;;;26.25;5.43;;;7.50;99.90;;;;;;5031451;28;20052;-83
2022/01/04 00:08:23;;;;;;;20.92;5.22;;;7.50;99.90;;;;;;5031502;28;20044;-83
2022/01/04 00:10:49;;;;;;;25.00;4.75;;;7.50;99.90;;;;;;5031797;28;20049;-83
2022/01/04 00:13:24;;;;;;;23.17;5.18;;;7.50;99.90;;;;;;5031694;28;20526;-83
2022/01/04 00:15:54;;;;;;;20.60;5.43;;;7.50;99.90;;;;;;5030661;28;20049;-83
2022/01/04 00:18:21;;;;;;;26.50;5.85;;;7.50;99.90;;;;;;5031267;28;20069;-83
2022/01/04 00:20:47;;;;;;;17.85;4.90;;;7.40;99.90;;;;;;5031838;28;20044;-83
2022/01/04 00:23:14;;;;;;;22.05;4.97;;;7.40;99.90;;;;;;5031627;28;20044;-82
2022/01/04 00:25:40;;;;;;;26.45;5.50;;;7.30;99.90;;;;;;5030890;28;20487;-83
2022/01/04 00:28:07;;;;;;;19.83;5.70;;;7.40;99.90;;;;;;5015057;28;20048;-83
2022/01/04 00:30:37;;;;;;;22.48;5.68;;;7.30;99.90;;;;;;5031303;28;20399;-82
2022/01/04 00:33:03;;;;;;;29.83;7.60;;;7.30;99.90;;;;;;5013543;28;20499;-82
2022/01/04 00:35:29;;;;;;;24.00;6.00;;;7.30;99.90;;;;;;5014415;28;20034;-84
2022/01/04 00:37:55;;;;;;;33.35;6.30;;;7.30;99.90;;;;;;5031569;28;20041;-83
2022/01/04 00:40:21;;;;;;;23.30;5.80;;;7.40;99.90;;;;;;5031036;28;20037;-82
2022/01/04 00:42:47;;;;;;;23.45;6.50;;;7.30;99.90;;;;;;5031731;28;20037;-83
2022/01/04 00:45:12;;;;;;;22.58;6.07;;;7.30;99.90;;;;;;5030307;28;20083;-83
2022/01/04 00:47:46;;;;;;;26.65;6.43;;;7.30;99.90;;;;;;5014680;28;20041;-82
2022/01/04 00:50:13;;;;;;;26.98;7.72;;;7.30;99.90;;;;;;5011091;28;20095;-83
2022/01/04 00:52:38;;;;;;;24.63;6.32;;;7.30;99.90;;;;;;5011609;28;20034;-83
2022/01/04 00:55:04;;;;;;;22.42;7.20;;;7.30;99.90;;;;;;5019401;28;20448;-83
2022/01/04 00:57:30;;;;;;;24.95;6.78;;;7.40;99.90;;;;;;5029593;28;20079;-83
2022/01/04 00:59:55;;;;;;;27.88;7.35;;;7.40;99.90;;;;;;5030922;28;20041;-83
2022/01/04 01:02:21;;;;;;;30.42;7.30;;;7.40;99.90;;;;;;5030662;28;20034;-82
2022/01/04 01:04:46;;;;;;;27.77;8.32;;;7.40;99.90;;;;;;5014068;28;20647;-83
2022/01/04 01:07:12;;;;;;;29.63;7.82;;;7.40;99.90;;;;;;5014581;28;20034;-83
2022/01/04 01:09:48;;;;;;;27.95;7.35;;;7.40;99.90;;;;;;5030703;28;20043;-83
2022/01/04 01:12:13;;;;;;;23.60;6.40;;;7.50;99.90;;;;;;5030750;28;20041;-82
2022/01/04 01:14:39;;;;;;;35.63;7.47;;;7.40;99.90;;;;;;5030005;28;20036;-83
2022/01/04 01:17:04;;;;;;;23.38;6.43;;;7.50;99.90;;;;;;5030439;28;20049;-83
2022/01/04 01:19:30;;;;;;;31.77;7.80;;;7.40;99.90;;;;;;5030751;28;20041;-83
2022/01/04 01:21:55;;;;;;;25.10;6.95;;;7.50;99.90;;;;;;5030897;28;20072;-83
2022/01/04 01:24:21;;;;;;;20.27;6.18;;;7.40;99.90;;;;;;5013950;28;20041;-83
2022/01/04 01:26:46;;;;;;;31.50;8.00;;;7.50;99.90;;;;;;5030381;28;20556;-82
2022/01/04 01:29:12;;;;;;;30.13;7.93;;;7.50;99.90;;;;;;5030615;28;20049;-82
2022/01/04 01:31:37;;;;;;;40.30;8.18;;;7.60;99.90;;;;;;5029605;28;20064;-83
2022/01/04 01:34:03;;;;;;;30.58;8.68;;;7.60;99.90;;;;;;5030019;28;20090;-82
2022/01/04 01:36:31;;;;;;;25.95;7.80;;;7.60;99.90;;;;;;5030137;28;20065;-83
2022/01/04 01:38:56;;;;;;;29.77;7.38;;;7.60;99.90;;;;;;5030312;28;20045;-82
2022/01/04 01:41:22;;;;;;;26.98;7.53;;;7.70;99.90;;;;;;5013534;28;20091;-82
2022/01/04 01:43:47;;;;;;;29.98;8.85;;;7.70;99.90;;;;;;5029560;28;20079;-82
2022/01/04 01:46:13;;;;;;;27.23;8.38;;;7.70;99.90;;;;;;5013294;28;20037;-83
2022/01/04 01:48:38;;;;;;;30.50;8.45;;;7.70;99.90;;;;;;5013320;28;20039;-83
2022/01/04 01:51:04;;;;;;;23.25;6.78;;;7.70;99.90;;;;;;5030187;28;20669;-83
2022/01/04 01:53:30;;;;;;;24.65;7.78;;;7.70;99.90;;;;;;5030404;28;20060;-82
2022/01/04 01:55:55;;;;;;;27.98;7.63;;;7.70;99.90;;;;;;5029980;28;20052;-84
2022/01/04 01:58:21;;;;;;;31.20;7.60;;;7.70;99.90;;;;;;5029497;28;20042;-82
2022/01/04 02:00:46;;;;;;;29.23;7.18;;;7.70;99.90;;;;;;5028579;28;20040;-83
2022/01/04 02:03:12;;;;;;;26.38;6.85;;;7.70;99.90;;;;;;5013760;28;20042;-82
2022/01/04 02:05:38;;;;;;;27.42;7.55;;;7.70;99.90;;;;;;5013222;28;20410;-83
2022/01/04 02:08:04;;;;;;;37.20;8.05;;;7.70;99.90;;;;;;5029967;28;20048;-82
2022/01/04 02:10:31;;;;;;;23.77;6.63;;;7.70;99.90;;;;;;5013773;28;20048;-83
2022/01/04 02:12:56;;;;;;;25.92;6.85;;;7.70;99.90;;;;;;5029957;28;20034;-83
2022/01/04 02:15:24;;;;;;;27.38;6.15;;;7.70;99.90;;;;;;5029328;28;20033;-84
2022/01/04 02:17:50;;;;;;;34.80;6.80;;;7.70;99.90;;;;;;5013575;28;20163;-83
2022/01/04 02:20:17;;;;;;;23.67;5.68;;;7.70;99.90;;;;;;5013419;28;20041;-83
2022/01/04 02:22:44;;;;;;;30.13;6.88;;;7.60;99.90;;;;;;5030122;28;20491;-83
2022/01/04 02:25:10;;;;;;;29.38;6.43;;;7.70;99.90;;;;;;5029365;28;20041;-83
2022/01/04 02:27:38;;;;;;;26.33;6.35;;;7.60;99.90;;;;;;5030024;28;20041;-82
2022/01/04 02:30:06;;;;;;;27.30;6.15;;;7.70;99.90;;;;;;5013126;28;20041;-83
2022/01/04 02:32:32;;;;;;;25.13;6.40;;;7.70;99.90;;;;;;5015610;28;20045;-83
2022/01/04 02:34:57;;;;;;;23.38;6.03;;;7.70;99.90;;;;;;5029613;28;20132;-83
2022/01/04 02:37:25;;;;;;;34.15;7.40;;;7.80;99.90;;;;;;5029560;28;20096;-83
2022/01/04 02:39:52;;;;;;;25.45;6.80;;;7.80;99.90;;;;;;5029772;28;20056;-83
2022/01/04 02:42:18;;;;;;;28.58;7.13;;;7.80;99.90;;;;;;5029383;28;20045;-83
2022/01/04 02:44:44;;;;;;;26.42;7.63;;;7.80;99.90;;;;;;5029391;28;20060;-84
2022/01/04 02:47:10;;;;;;;27.05;7.45;;;7.90;99.90;;;;;;5029540;28;20060;-84
2022/01/04 02:49:35;;;;;;;28.63;7.15;;;7.90;99.90;;;;;;5029309;28;20041;-82
2022/01/04 02:52:01;;;;;;;22.35;7.18;;;7.90;99.90;;;;;;5029813;28;20052;-83
2022/01/04 02:54:27;;;;;;;25.98;7.57;;;7.90;99.90;;;;;;5029252;28;20045;-83
2022/01/04 02:56:52;;;;;;;23.08;6.80;;;8.00;99.90;;;;;;5030058;28;20034;-83
2022/01/04 02:59:18;;;;;;;26.40;7.03;;;8.00;99.90;;;;;;5032723;28;20087;-83
2022/01/04 03:01:44;;;;;;;30.85;7.82;;;7.90;99.90;;;;;;5032570;28;20045;-84
2022/01/04 03:04:09;;;;;;;25.30;7.30;;;7.90;99.90;;;;;;5033193;28;20124;-83
2022/01/04 03:06:36;;;;;;;27.45;7.35;;;7.90;99.90;;;;;;5032761;28;20079;-83
2022/01/04 03:09:04;;;;;;;33.33;7.07;;;7.90;99.90;;;;;;5016227;28;20083;-84
2022/01/04 03:11:30;;;;;;;31.33;7.57;;;7.90;99.90;;;;;;5032759;28;20033;-83
2022/01/04 03:13:55;;;;;;;26.80;7.47;;;7.90;99.90;;;;;;5032383;28;20376;-84
2022/01/04 03:16:21;;;;;;;28.80;7.80;;;7.90;99.90;;;;;;5032802;28;20167;-84
2022/01/04 03:19:03;;;;;;;24.02;7.43;;;7.90;99.90;;;;;;5032708;28;20038;-83
2022/01/04 03:21:33;;;;;;;24.90;7.22;;;8.00;99.90;;;;;;5032966;28;20120;-84
2022/01/04 03:23:59;;;;;;;31.45;8.07;;;7.90;99.90;;;;;;5032500;28;20045;-84
2022/01/04 03:26:25;;;;;;;28.92;8.02;;;7.90;99.90;;;;;;5032372;28;20529;-83
2022/01/04 03:28:51;;;;;;;24.70;7.70;;;7.90;99.90;;;;;;5015964;28;20038;-84
2022/01/04 03:31:16;;;;;;;26.90;8.88;;;7.90;99.90;;;;;;5024664;28;20042;-83
2022/01/04 03:33:42;;;;;;;31.17;8.52;;;7.90;99.90;;;;;;5012341;28;20040;-82
2022/01/04 03:36:08;;;;;;;29.00;8.85;;;7.90;99.90;;;;;;5030523;28;20491;-83
2022/01/04 03:38:33;;;;;;;26.65;8.77;;;7.90;99.90;;;;;;5031046;28;20430;-85
2022/01/04 03:40:59;;;;;;;21.02;7.40;;;7.90;99.90;;;;;;5030834;28;20045;-85
2022/01/04 03:43:25;;;;;;;27.08;8.50;;;7.90;99.90;;;;;;5030792;28;20056;-84
2022/01/04 03:45:51;;;;;;;25.05;7.10;;;7.90;99.90;;;;;;5030792;28;20419;-84
2022/01/04 03:48:16;;;;;;;35.20;7.68;;;7.90;99.90;;;;;;5014790;28;20041;-83
2022/01/04 03:50:42;;;;;;;26.30;7.97;;;7.90;99.90;;;;;;5032223;28;20527;-84
2022/01/04 03:53:08;;;;;;;28.45;8.30;;;7.90;99.90;;;;;;5015534;28;20561;-84
2022/01/04 03:55:34;;;;;;;30.35;7.60;;;7.90;99.90;;;;;;5014913;28;20128;-84
2022/01/04 03:58:00;;;;;;;29.90;7.80;;;7.90;99.90;;;;;;5032037;28;20473;-83
2022/01/04 04:00:26;;;;;;;28.90;8.75;;;7.90;99.90;;;;;;5031697;28;20056;-84
2022/01/04 04:02:51;;;;;;;23.42;7.72;;;7.90;99.90;;;;;;5032348;28;20041;-84
2022/01/04 04:05:18;;;;;;;31.70;8.43;;;7.90;99.90;;;;;;5031475;28;20042;-83
2022/01/04 04:07:43;;;;;;;23.98;7.85;;;7.90;99.90;;;;;;5029120;28;20033;-82
2022/01/04 04:10:09;;;;;;;28.80;7.60;;;7.90;99.90;;;;;;5019904;28;20518;-83
2022/01/04 04:12:35;;;;;;;29.17;8.10;;;7.90;99.90;;;;;;5031844;28;20495;-82
2022/01/04 04:15:03;;;;;;;29.92;8.55;;;7.90;99.90;;;;;;5014772;28;20037;-84
2022/01/04 04:17:30;;;;;;;32.28;8.77;;;7.90;99.90;;;;;;5031904;28;20037;-82
2022/01/04 04:19:55;;;;;;;26.85;8.15;;;7.90;99.90;;;;;;5031742;28;20030;-83
2022/01/04 04:22:21;;;;;;;30.17;8.52;;;7.90;99.90;;;;;;5014887;28;20413;-84
2022/01/04 04:24:46;;;;;;;32.08;8.45;;;7.90;99.90;;;;;;5031426;28;20096;-84
2022/01/04 04:27:13;;;;;;;28.70;9.55;;;7.90;99.90;;;;;;5031358;28;20041;-84
2022/01/04 04:29:39;;;;;;;22.10;8.77;;;7.80;99.90;;;;;;5031263;28;20069;-84
2022/01/04 04:32:05;;;;;;;36.28;9.63;;;7.90;99.90;;;;;;5014758;28;20147;-84
2022/01/04 04:34:31;;;;;;;31.08;9.63;;;7.80;99.90;;;;;;5030495;28;20038;-83
2022/01/04 04:36:57;;;;;;;35.13;9.32;;;7.80;99.90;;;;;;5015004;28;20099;-84
2022/01/04 04:39:22;;;;;;;27.20;9.45;;;7.80;99.90;;;;;;5031364;28;20083;-83
2022/01/04 04:41:49;;;;;;;34.15;10.43;;;7.70;99.90;;;;;;5031268;28;20083;-83
2022/01/04 04:44:15;;;;;;;27.52;10.15;;;7.70;99.90;;;;;;5030366;28;20490;-83
2022/01/04 04:46:41;;;;;;;33.67;11.30;;;7.70;99.90;;;;;;5030910;28;20060;-83
2022/01/04 04:49:06;;;;;;;33.60;11.52;;;7.70;99.90;;;;;;5014781;28;20503;-82
2022/01/04 04:51:33;;;;;;;35.97;11.50;;;7.70;99.90;;;;;;5030887;28;20124;-83
2022/01/04 04:53:58;;;;;;;29.42;12.20;;;7.70;99.90;;;;;;5014167;28;20129;-83
2022/01/04 04:56:24;;;;;;;38.17;11.90;;;7.70;99.90;;;;;;5009862;28;20124;-84
2022/01/04 04:58:49;;;;;;;31.98;11.52;;;7.70;99.90;;;;;;5030281;28;20060;-83
2022/01/04 05:01:15;;;;;;;36.63;12.77;;;7.70;99.90;;;;;;5030734;28;20124;-84
2022/01/04 05:03:40;;;;;;;31.63;12.80;;;7.70;99.90;;;;;;5031218;28;20072;-83
2022/01/04 05:06:06;;;;;;;41.15;14.15;;;7.70;99.90;;;;;;5030266;28;20506;-84
2022/01/04 05:08:32;;;;;;;33.40;12.82;;;7.70;99.90;;;;;;5030843;28;20037;-84
2022/01/04 05:10:57;;;;;;;41.28;14.30;;;7.70;99.90;;;;;;5030863;28;20052;-83
2022/01/04 05:13:23;;;;;;;40.88;13.40;;;7.70;99.90;;;;;;5031300;28;20120;-83
2022/01/04 05:15:49;;;;;;;40.38;14.20;;;7.60;99.90;;;;;;5029904;28;20049;-83
2022/01/04 05:18:15;;;;;;;44.55;13.52;;;7.70;99.90;;;;;;5029363;28;20056;-84
2022/01/04 05:20:40;;;;;;;39.13;13.35;;;7.70;99.90;;;;;;5030113;28;20065;-82
2022/01/04 05:23:06;;;;;;;39.13;13.85;;;7.70;99.90;;;;;;5015020;28;20415;-83
2022/01/04 05:25:32;;;;;;;37.55;13.02;;;7.70;99.90;;;;;;5013481;28;20045;-83
2022/01/04 05:27:57;;;;;;;36.03;12.93;;;7.60;99.90;;;;;;5030571;28;20038;-83
2022/01/04 05:30:23;;;;;;;35.80;13.23;;;7.70;99.90;;;;;;5030280;28;20088;-83
2022/01/04 05:32:48;;;;;;;29.85;12.15;;;7.70;99.90;;;;;;5030536;28;20376;-83
2022/01/04 05:35:14;;;;;;;39.70;13.05;;;7.60;99.90;;;;;;5029683;28;20080;-83
2022/01/04 05:37:40;;;;;;;38.47;13.50;;;7.60;99.90;;;;;;5013136;28;20029;-84
2022/01/04 05:40:06;;;;;;;33.47;13.63;;;7.70;99.90;;;;;;5013007;28;20040;-83
2022/01/04 05:42:31;;;;;;;37.05;14.05;;;7.60;99.90;;;;;;5013762;28;20029;-84
2022/01/04 05:44:57;;;;;;;35.63;13.55;;;7.70;99.90;;;;;;5013346;28;20044;-83
2022/01/04 05:47:27;;;;;;;37.97;13.05;;;7.60;99.90;;;;;;5013772;28;20041;-84
2022/01/04 05:49:52;;;;;;;39.05;13.23;;;7.60;99.90;;;;;;5013130;28;20141;-84
2022/01/04 05:52:18;;;;;;;38.80;12.13;;;7.60;99.90;;;;;;5030397;28;20065;-83
2022/01/04 05:54:45;;;;;;;35.08;12.02;;;7.60;99.90;;;;;;5030130;28;20523;-83
2022/01/04 05:57:10;;;;;;;41.70;12.93;;;7.60;99.90;;;;;;5029591;28;20577;-83
2022/01/04 05:59:36;;;;;;;36.03;11.93;;;7.60;99.90;;;;;;5029941;28;20037;-83
2022/01/04 06:02:02;;;;;;;31.23;10.88;;;7.60;99.90;;;;;;5029595;28;20045;-83
2022/01/04 06:04:28;;;;;;;41.22;12.13;;;7.60;99.90;;;;;;5029552;28;20041;-84
2022/01/04 06:06:54;;;;;;;42.97;11.75;;;7.60;99.90;;;;;;5030298;28;20053;-84
2022/01/04 06:09:27;;;;;;;33.22;9.93;;;7.60;99.90;;;;;;5013586;28;20046;-83
2022/01/04 06:17:06;;;;;;;27.38;10.52;;;7.60;99.90;;;;;;5030099;28;20430;-83
2022/01/04 06:19:32;;;;;;;30.75;10.07;;;7.60;99.90;;;;;;5013498;28;20044;-83
2022/01/04 06:21:57;;;;;;;33.97;9.93;;;7.60;99.90;;;;;;5029017;28;20041;-84
2022/01/04 06:24:23;;;;;;;33.83;9.88;;;7.60;99.90;;;;;;5013341;28;20048;-82
2022/01/04 06:26:49;;;;;;;26.45;9.73;;;7.60;99.90;;;;;;5013143;28;20483;-83
2022/01/04 06:29:15;;;;;;;35.47;10.73;;;7.60;99.90;;;;;;5028556;28;20050;-83
2022/01/04 06:31:41;;;;;;;28.33;10.35;;;7.60;99.90;;;;;;5032517;28;20029;-83
2022/01/04 06:34:07;;;;;;;39.30;10.45;;;7.60;99.90;;;;;;5016655;28;20030;-83
2022/01/04 06:36:33;;;;;;;36.55;10.77;;;7.70;99.90;;;;;;5006482;28;20038;-84
2022/01/04 06:38:59;;;;;;;38.55;11.48;;;7.60;99.90;;;;;;5033761;28;20124;-82
2022/01/04 06:41:24;;;;;;;35.83;10.07;;;7.70;99.90;;;;;;5017257;28;20186;-83
2022/01/04 06:43:50;;;;;;;31.13;10.48;;;7.70;99.90;;;;;;5016473;28;20121;-83
2022/01/04 06:46:15;;;;;;;40.78;11.35;;;7.60;99.90;;;;;;5032694;28;20045;-83
2022/01/04 06:48:41;;;;;;;33.33;9.73;;;7.60;99.90;;;;;;5033372;28;20045;-83
2022/01/04 06:51:08;;;;;;;33.78;10.50;;;7.60;99.90;;;;;;5032795;28;20513;-83
2022/01/04 06:53:34;;;;;;;28.55;11.90;;;7.60;99.90;;;;;;5028957;28;20406;-83
2022/01/04 06:55:59;;;;;;;30.30;10.10;;;7.60;99.90;;;;;;5033186;28;20120;-84
2022/01/04 06:58:25;;;;;;;23.23;10.27;;;7.60;99.90;;;;;;5031548;28;20045;-84
2022/01/04 07:00:50;;;;;;;27.55;10.65;;;7.60;99.90;;;;;;5032449;28;20045;-82
2022/01/04 07:03:16;;;;;;;25.48;10.15;;;7.50;99.90;;;;;;5032887;28;20037;-82
2022/01/04 07:05:42;;;;;;;36.20;10.55;;;7.50;99.90;;;;;;5032311;28;20088;-83
2022/01/04 07:08:08;;;;;;;25.90;10.23;;;7.50;99.90;;;;;;5032502;28;20083;-84
2022/01/04 07:10:33;;;;;;;29.88;9.82;;;7.50;99.90;;;;;;5016075;28;20069;-83
2022/01/04 07:12:59;;;;;;;25.35;10.02;;;7.50;99.90;;;;;;5016234;28;20034;-82
2022/01/04 07:15:24;;;;;;;27.98;9.07;;;7.50;99.90;;;;;;5031815;28;20044;-83
2022/01/04 07:17:50;;;;;;;29.85;9.15;;;7.50;99.90;;;;;;5031401;28;20048;-82
2022/01/04 07:20:15;;;;;;;23.02;7.30;;;7.40;99.90;;;;;;5031954;28;20041;-84
2022/01/04 07:22:41;;;;;;;20.85;7.88;;;7.50;99.90;;;;;;5031803;28;20036;-83
2022/01/04 07:25:07;;;;;;;25.83;7.63;;;7.50;99.90;;;;;;5031338;28;20029;-83
2022/01/04 07:27:33;;;;;;;28.70;7.30;;;7.40;99.90;;;;;;5032402;28;20046;-82
2022/01/04 07:29:59;;;;;;;20.17;7.07;;;7.40;99.90;;;;;;5032076;28;20060;-83
2022/01/04 07:32:25;;;;;;;23.65;7.40;;;7.40;99.90;;;;;;5032681;28;20462;-83
2022/01/04 07:34:51;;;;;;;24.13;8.02;;;7.40;99.90;;;;;;5032404;28;20077;-83
2022/01/04 07:37:16;;;;;;;25.35;8.65;;;7.40;99.90;;;;;;5032742;28;20494;-84
2022/01/04 07:39:42;;;;;;;33.08;8.45;;;7.40;99.90;;;;;;5032318;28;20487;-82
2022/01/04 07:42:08;;;;;;;26.23;8.68;;;7.40;99.90;;;;;;5032890;28;20041;-82
2022/01/04 07:44:33;;;;;;;20.73;7.65;;;7.50;99.90;;;;;;5015372;28;20076;-82
2022/01/04 07:46:59;;;;;;;23.33;8.70;;;7.40;99.90;;;;;;5032654;28;20649;-82
2022/01/04 07:49:25;;;;;;;23.23;8.20;;;7.40;99.90;;;;;;5032114;28;20419;-82
2022/01/04 07:51:52;;;;;;;28.17;8.13;;;7.40;99.90;;;;;;5015669;28;20041;-82
2022/01/04 07:54:18;;;;;;;42.30;9.20;;;7.40;99.90;;;;;;5006603;28;20034;-83
2022/01/04 07:56:43;;;;;;;21.33;7.65;;;7.40;99.90;;;;;;5013444;28;20068;-82
2022/01/04 07:59:09;;;;;;;17.90;5.97;;;7.40;99.90;;;;;;5015796;28;20041;-82
2022/01/04 08:01:34;;;;;;;15.27;5.85;;;7.30;99.90;;;;;;5032407;28;20076;-82
2022/01/04 08:04:00;;;;;;;16.80;5.82;;;7.30;99.90;;;;;;5015610;28;20384;-81
2022/01/04 08:06:27;;;;;;;11.45;3.85;;;7.30;99.90;;;;;;5031060;28;20040;-82
2022/01/04 08:08:52;;;;;;;13.15;4.22;;;7.30;99.90;;;;;;5028802;28;20056;-82
2022/01/04 08:11:19;;;;;;;12.88;3.88;;;7.30;99.90;;;;;;5013391;28;20030;-82
2022/01/04 08:13:45;;;;;;;10.23;3.28;;;7.30;99.90;;;;;;5028238;28;20500;-83
2022/01/04 08:16:10;;;;;;;11.23;3.03;;;7.20;99.90;;;;;;5013148;28;20048;-82
2022/01/04 08:18:36;;;;;;;15.38;4.35;;;7.20;99.90;;;;;;5015099;28;20041;-82
2022/01/04 08:21:04;;;;;;;15.48;3.35;;;7.10;99.90;;;;;;5030607;28;20041;-82
2022/01/04 08:23:30;;;;;;;9.45;3.30;;;7.10;99.90;;;;;;5033145;28;20094;-81
2022/01/04 08:25:56;;;;;;;11.23;3.38;;;7.10;99.90;;;;;;5013966;28;20068;-82
2022/01/04 08:28:22;;;;;;;10.32;3.13;;;7.10;99.90;;;;;;5011190;28;20042;-82
2022/01/04 08:30:47;;;;;;;11.75;3.30;;;7.10;99.90;;;;;;5019651;28;20033;-82
2022/01/04 08:33:14;;;;;;;12.75;3.88;;;7.10;99.90;;;;;;5015680;28;20032;-82
2022/01/04 08:35:39;;;;;;;11.05;3.63;;;7.10;99.90;;;;;;5030143;28;20072;-82
2022/01/04 08:38:06;;;;;;;12.52;3.58;;;7.00;99.90;;;;;;5031763;28;20127;-83
2022/01/04 08:40:32;;;;;;;11.50;3.83;;;7.00;99.90;;;;;;5031255;28;20048;-83
2022/01/04 08:42:57;;;;;;;12.40;3.55;;;7.00;99.90;;;;;;5031399;28;20037;-82
2022/01/04 08:45:24;;;;;;;12.30;3.75;;;7.00;99.90;;;;;;5030280;28;20049;-82
2022/01/04 08:47:51;;;;;;;15.35;3.80;;;7.00;99.90;;;;;;5020272;28;20169;-82
2022/01/04 08:50:18;;;;;;;16.42;4.32;;;7.00;99.90;;;;;;5031148;28;20399;-83
2022/01/04 08:52:44;;;;;;;14.80;4.03;;;7.00;99.90;;;;;;5030613;28;20065;-81
2022/01/04 08:55:10;;;;;;;17.50;5.07;;;7.00;99.90;;;;;;5030211;28;20075;-82
2022/01/04 08:57:36;;;;;;;19.33;4.97;;;7.10;99.90;;;;;;5030208;28;20029;-83
2022/01/04 09:00:07;;;;;;;16.60;3.95;;;7.00;99.90;;;;;;5030449;28;20092;-81
2022/01/04 09:02:33;;;;;;;11.00;2.17;;;7.10;99.90;;;;;;5030423;28;20034;-82
2022/01/04 09:04:59;;;;;;;8.50;2.00;;;7.10;99.90;;;;;;5029840;28;20091;-81
2022/01/04 09:07:25;;;;;;;9.75;1.52;;;6.90;99.90;;;;;;5013242;28;20128;-81
2022/01/04 09:09:51;;;;;;;5.88;1.27;;;6.80;99.90;;;;;;5029204;28;20071;-81
2022/01/04 09:12:19;;;;;;;6.72;1.33;;;6.70;99.90;;;;;;5029562;28;20033;-81
2022/01/04 09:15:07;;;;;;;6.88;1.25;;;6.60;99.90;;;;;;5030500;28;20037;-81
2022/01/04 09:20:16;;;;;;;;;;;6.60;99.90;;;;;;5027863;28;20561;-81
2022/01/04 09:22:42;;;;;;;8.77;1.48;;;6.60;99.90;;;;;;5029966;28;19917;-81
2022/01/04 09:25:09;;;;;;;5.20;0.90;;;6.50;99.90;;;;;;5026873;28;20120;-81
2022/01/04 09:27:36;;;;;;;4.32;0.98;;;6.50;99.90;;;;;;5011835;28;20057;-80
2022/01/04 09:30:04;;;;;;;5.43;1.05;;;6.40;99.90;;;;;;5025532;28;20061;-83
2022/01/04 09:32:32;;;;;;;6.25;0.75;;;6.40;99.90;;;;;;5002734;28;20092;-80
2022/01/04 09:34:59;;;;;;;4.57;0.80;;;6.40;99.90;;;;;;5022534;28;20036;-82
2022/01/04 09:37:24;;;;;;;5.60;0.60;;;6.40;99.90;;;;;;4991929;28;20034;-82
2022/01/04 09:39:51;;;;;;;5.75;0.93;;;6.40;99.90;;;;;;5008225;28;20060;-81
2022/01/04 09:42:17;;;;;;;5.53;1.10;;;6.50;99.90;;;;;;5009481;28;20041;-82
2022/01/04 09:44:43;;;;;;;4.63;1.00;;;6.40;99.90;;;;;;5009586;28;20037;-81
2022/01/04 09:47:08;;;;;;;7.95;1.38;;;6.40;99.90;;;;;;5010327;28;20410;-81
2022/01/04 09:49:34;;;;;;;6.55;1.15;;;6.40;99.90;;;;;;5010198;28;20053;-82
2022/01/04 09:52:02;;;;;;;3.90;0.90;;;6.40;99.90;;;;;;5024023;28;20462;-82
2022/01/04 09:54:28;;;;;;;5.22;1.08;;;6.30;99.90;;;;;;5025633;28;20486;-81
2022/01/04 09:56:54;;;;;;;6.43;0.85;;;6.30;99.90;;;;;;5011305;28;20081;-81
2022/01/04 09:59:20;;;;;;;2.45;1.05;;;6.30;99.90;;;;;;5026915;28;20065;-81
2022/01/04 10:01:51;;;;;;;4.70;1.00;;;6.30;99.90;;;;;;5029500;28;20391;-81
2022/01/04 10:04:24;;;;;;;5.35;0.80;;;6.30;99.90;;;;;;5028005;28;20038;-81
2022/01/04 10:07:05;;;;;;;5.95;0.80;;;6.30;99.90;;;;;;5034423;28;20147;-82
2022/01/04 10:09:36;;;;;;;6.28;0.85;;;6.30;99.90;;;;;;5033898;28;20037;-81
2022/01/04 10:12:02;;;;;;;6.72;1.23;;;6.20;99.90;;;;;;5033252;28;20060;-81
2022/01/04 10:14:36;;;;;;;4.35;0.85;;;6.20;99.90;;;;;;5033806;28;20119;-80
2022/01/04 10:17:10;;;;;;;2.55;0.75;;;6.10;99.90;;;;;;5032929;28;20065;-82
2022/01/04 10:19:39;;;;;;;2.75;0.50;;;6.10;99.90;;;;;;5033752;28;20048;-81
2022/01/04 10:22:15;;;;;;;1.88;0.50;;;6.00;99.90;;;;;;5014286;28;20049;-81
2022/01/04 10:24:42;;;;;;;4.15;0.68;;;5.90;99.90;;;;;;5025853;28;20059;-81
2022/01/04 10:27:26;;;;;;;3.88;0.60;;;5.70;99.90;;;;;;5029926;28;20046;-81
2022/01/04 10:30:23;;;;;;;3.70;0.70;;;5.60;99.90;;;;;;5030374;28;20045;-81
2022/01/04 10:32:55;;;;;;;1.85;0.63;;;5.60;99.90;;;;;;5027439;28;20108;-81
2022/01/04 10:35:28;;;;;;;3.22;0.63;;;5.50;99.90;;;;;;5030875;28;20037;-81
2022/01/04 10:37:56;;;;;;;3.22;1.00;;;5.50;99.90;;;;;;5029243;28;20095;-81
2022/01/04 10:40:23;;;;;;;1.80;0.52;;;5.50;99.90;;;;;;5012904;28;20041;-81
2022/01/04 10:42:48;;;;;;;3.85;0.52;;;5.50;99.90;;;;;;5018697;28;20045;-81
2022/01/04 10:45:30;;;;;;;3.55;0.63;;;5.50;99.90;;;;;;5032683;28;20033;-81
2022/01/04 10:48:19;;;;;;;2.67;0.65;;;5.40;99.90;;;;;;5014863;28;20069;-81
2022/01/04 10:50:49;;;;;;;3.67;0.90;;;5.50;99.90;;;;;;5015454;28;20362;-82
2022/01/04 10:53:24;;;;;;;3.67;0.70;;;5.50;99.90;;;;;;5030284;28;20038;-81
2022/01/04 10:55:54;;;;;;;9.75;1.15;;;5.50;99.90;;;;;;5014745;28;20042;-81
2022/01/04 10:58:41;;;;;;;4.00;0.77;;;5.50;99.90;;;;;;5012157;28;20033;-81
2022/01/04 11:01:08;;;;;;;4.22;0.52;;;5.50;99.90;;;;;;5026397;28;20041;-82
2022/01/04 11:03:36;;;;;;;3.72;0.68;;;5.60;99.90;;;;;;5033048;28;20216;-80
2022/01/04 11:06:09;;;;;;;5.43;0.68;;;5.50;99.90;;;;;;5014150;28;20056;-81
2022/01/04 11:08:35;;;;;;;4.35;0.77;;;5.40;99.90;;;;;;5032955;28;20042;-81
2022/01/04 11:11:00;;;;;;;5.82;0.70;;;5.40;99.90;;;;;;5015461;28;20042;-82
2022/01/04 11:13:26;;;;;;;4.38;1.17;;;5.40;99.90;;;;;;5014143;28;20033;-80
2022/01/04 11:15:52;;;;;;;6.38;0.85;;;5.40;99.90;;;;;;5013304;28;20030;-81
2022/01/04 11:18:18;;;;;;;3.45;0.70;;;5.40;99.90;;;;;;5022430;28;20409;-81
2022/01/04 11:20:45;;;;;;;8.35;0.93;;;5.30;99.90;;;;;;5031303;28;20106;-82
2022/01/04 11:23:13;;;;;;;9.95;0.73;;;5.20;99.90;;;;;;5032097;28;20045;-81
2022/01/04 11:25:42;;;;;;;10.02;0.88;;;5.20;99.90;;;;;;5012997;28;20045;-81
2022/01/04 11:28:09;;;;;;;4.13;0.73;;;5.20;99.90;;;;;;5014001;28;20037;-81
2022/01/04 11:30:38;;;;;;;5.72;0.77;;;5.10;99.90;;;;;;5013660;28;20439;-81
2022/01/04 11:33:13;;;;;;;5.70;1.10;;;5.10;99.90;;;;;;5013603;28;20042;-81
2022/01/04 11:35:39;;;;;;;6.20;0.82;;;5.10;99.90;;;;;;5012893;28;20038;-81
2022/01/04 11:38:04;;;;;;;8.48;0.63;;;5.10;99.90;;;;;;5013617;28;20049;-82
2022/01/04 11:40:34;;;;;;;4.07;1.80;;;5.10;99.90;;;;;;5021771;28;20049;-81
2022/01/04 11:43:01;;;;;;;5.05;0.60;;;5.10;99.90;;;;;;5013056;28;20495;-81
2022/01/04 11:45:56;;;;;;;7.53;0.95;;;5.20;99.90;;;;;;5012931;28;20398;-80
2022/01/04 11:48:41;;;;;;;6.40;0.77;;;5.20;99.90;;;;;;5012966;28;20538;-81
2022/01/04 11:51:29;;;;;;;8.63;0.95;;;5.30;99.90;;;;;;5020204;28;20384;-81
2022/01/04 11:54:13;;;;;;;4.00;1.00;;;5.40;99.90;;;;;;5032145;28;20058;-81
2022/01/04 11:57:09;;;;;;;5.70;0.80;;;5.40;99.90;;;;;;5029847;28;20056;-81
2022/01/04 11:59:45;;;;;;;3.60;0.65;;;5.40;99.90;;;;;;5029082;28;20046;-81
2022/01/04 12:02:31;;;;;;;4.82;0.70;;;5.50;99.90;;;;;;5029495;28;20614;-81
2022/01/04 12:04:59;;;;;;;5.97;0.70;;;5.50;99.90;;;;;;5024730;28;20341;-81
2022/01/04 12:07:44;;;;;;;5.28;0.90;;;5.60;99.90;;;;;;5031115;28;20037;-81
2022/01/04 12:10:19;;;;;;;7.03;1.13;;;5.60;99.90;;;;;;5026516;28;20049;-81
2022/01/04 12:13:11;;;;;;;6.00;1.30;;;5.60;99.90;;;;;;5029970;28;20487;-81
2022/01/04 12:15:36;;;;;;;3.83;1.00;;;5.60;99.90;;;;;;5009926;28;20064;-81
2022/01/04 12:18:21;;;;;;;3.95;0.95;;;5.70;99.90;;;;;;5031876;28;20037;-80
2022/01/04 12:20:49;;;;;;;6.50;0.80;;;5.70;99.90;;;;;;5013184;28;20042;-81
2022/01/04 12:23:26;;;;;;;8.93;1.33;;;5.70;99.90;;;;;;5015193;28;20509;-81
2022/01/04 12:28:39;;;;;;;4.93;0.75;;;5.70;99.90;;;;;;5031671;28;20100;-81
2022/01/04 12:31:20;;;;;;;4.38;1.00;;;5.70;99.90;;;;;;5027053;28;20033;-81
2022/01/04 12:34:23;;;;;;;5.07;0.88;;;5.80;99.90;;;;;;5010546;28;20053;-81
2022/01/04 12:36:49;;;;;;;10.95;1.10;;;5.70;99.90;;;;;;5010702;28;20049;-81
2022/01/04 12:39:17;;;;;;;6.95;1.00;;;5.70;99.90;;;;;;5010751;28;20072;-80
2022/01/04 12:41:45;;;;;;;7.25;0.90;;;5.60;99.90;;;;;;4995402;28;20077;-83
2022/01/04 12:44:14;;;;;;;8.20;0.95;;;5.60;99.90;;;;;;5015336;28;20059;-80
2022/01/04 12:46:46;;;;;;;8.43;0.90;;;5.50;99.90;;;;;;5030406;28;20044;-81
2022/01/04 12:49:14;;;;;;;7.10;1.10;;;5.40;99.90;;;;;;5013377;28;20487;-81
2022/01/04 12:51:44;;;;;;;6.32;1.02;;;5.30;99.90;;;;;;5029666;28;20529;-81
2022/01/04 12:54:12;;;;;;;6.20;0.90;;;5.30;99.90;;;;;;5031146;28;20116;-81
2022/01/04 12:56:42;;;;;;;7.60;1.27;;;5.30;99.90;;;;;;5025106;28;20042;-81
2022/01/04 12:59:09;;;;;;;3.25;0.77;;;5.30;99.90;;;;;;5032446;28;20479;-81
2022/01/04 13:01:34;;;;;;;6.63;1.10;;;5.30;99.90;;;;;;5033849;28;20045;-81